Time,TemperatureF,DewpointF,PressureIn,WindDirection,WindDirectionDegrees,WindSpeedMPH,WindSpeedGustMPH,Humidity,HourlyPrecipIn,Conditions,Clouds,dailyrainin,SoftwareType,DateUTC
2013-10-30 00:02:00,58.5,49.5,29.21,SW,228,0.0,0.0,72,0.00,,SKC,0.00,VWS V14.00,2013-10-30 04:02:00,
2013-10-30 00:07:00,58.5,49.5,29.21,SW,228,0.0,0.0,72,0.00,,SKC,0.00,VWS V14.00,2013-10-30 04:07:00,
2013-10-30 00:10:00,58.5,49.5,29.21,SW,228,0.0,0.0,72,0.00,,SKC,0.00,VWS V14.00,2013-10-30 04:10:00,
2013-10-30 00:12:00,58.5,49.5,29.21,SW,228,0.0,0.0,72,0.00,,SKC,0.00,VWS V14.00,2013-10-30 04:12:00,
2013-10-30 00:17:00,58.6,49.7,29.21,SW,228,0.0,0.0,72,0.00,,SKC,0.00,VWS V14.00,2013-10-30 04:17:00,
2013-10-30 00:22:00,58.6,49.7,29.21,SW,227,0.0,0.0,72,0.00,,SKC,0.00,VWS V14.00,2013-10-30 04:22:00,
2013-10-30 00:27:00,58.6,49.7,29.21,SW,228,0.0,0.0,72,0.00,,SKC,0.00,VWS V14.00,2013-10-30 04:27:00,
2013-10-30 00:32:00,58.6,49.7,29.18,SW,228,0.0,0.0,72,0.00,,SKC,0.00,VWS V14.00,2013-10-30 04:32:00,
2013-10-30 00:37:00,58.8,49.8,29.18,SW,228,0.0,0.0,72,0.00,,SKC,0.00,VWS V14.00,2013-10-30 04:37:00,
2013-10-30 00:42:00,58.8,49.5,29.18,SW,228,0.0,0.0,71,0.00,,SKC,0.00,VWS V14.00,2013-10-30 04:42:00,
2013-10-30 00:47:00,58.8,49.5,29.18,SW,227,0.0,0.0,71,0.00,,SKC,0.00,VWS V14.00,2013-10-30 04:47:00,
2013-10-30 00:52:00,58.8,49.8,29.18,SW,227,0.0,0.0,72,0.00,,SKC,0.00,VWS V14.00,2013-10-30 04:52:00,
2013-10-30 00:57:00,58.8,49.8,29.18,SW,228,0.0,0.0,72,0.00,,SKC,0.00,VWS V14.00,2013-10-30 04:57:00,
2013-10-30 01:00:00,58.8,49.8,29.18,SW,228,0.0,0.0,72,0.00,,SKC,0.00,VWS V14.00,2013-10-30 05:00:00,
2013-10-30 01:07:00,58.6,49.7,29.18,SW,227,0.0,0.0,72,0.00,,SKC,0.00,VWS V14.00,2013-10-30 05:07:00,
2013-10-30 01:12:00,58.6,49.7,29.18,SW,228,0.0,0.0,72,0.00,,SKC,0.00,VWS V14.00,2013-10-30 05:12:00,
2013-10-30 01:17:00,58.5,49.8,29.18,SW,228,0.0,0.0,73,0.00,,SKC,0.00,VWS V14.00,2013-10-30 05:17:00,
2013-10-30 01:22:00,58.5,49.8,29.18,SW,227,0.0,0.0,73,0.00,,SKC,0.00,VWS V14.00,2013-10-30 05:22:00,
2013-10-30 01:27:00,58.3,49.7,29.18,SW,228,0.0,0.0,73,0.00,,SKC,0.00,VWS V14.00,2013-10-30 05:27:00,
2013-10-30 01:32:00,58.3,50.0,29.18,SW,228,0.0,0.0,74,0.00,,SKC,0.00,VWS V14.00,2013-10-30 05:32:00,
2013-10-30 01:37:00,58.1,49.9,29.18,SW,227,0.0,0.0,74,0.00,,SKC,0.00,VWS V14.00,2013-10-30 05:37:00,
2013-10-30 01:42:00,58.1,49.9,29.18,SW,227,0.0,0.0,74,0.00,,SKC,0.00,VWS V14.00,2013-10-30 05:42:00,
2013-10-30 01:47:00,58.1,49.9,29.18,SW,228,0.0,0.0,74,0.00,,SKC,0.00,VWS V14.00,2013-10-30 05:47:00,
2013-10-30 01:52:00,58.1,49.9,29.18,SW,228,0.0,0.0,74,0.00,,SKC,0.00,VWS V14.00,2013-10-30 05:52:00,
2013-10-30 01:57:00,58.1,49.9,29.18,SW,228,0.0,0.0,74,0.00,,SKC,0.00,VWS V14.00,2013-10-30 05:57:00,
2013-10-30 02:02:00,57.9,49.7,29.18,SW,228,0.0,0.0,74,0.00,,SKC,0.00,VWS V14.00,2013-10-30 06:02:00,
2013-10-30 02:07:00,57.9,49.7,29.18,SW,228,0.0,0.0,74,0.00,,SKC,0.00,VWS V14.00,2013-10-30 06:07:00,
2013-10-30 02:12:00,57.9,49.7,29.18,SW,228,0.0,0.0,74,0.00,,SKC,0.00,VWS V14.00,2013-10-30 06:12:00,
2013-10-30 02:17:00,57.7,49.5,29.18,SW,228,0.0,0.0,74,0.00,,SKC,0.00,VWS V14.00,2013-10-30 06:17:00,
2013-10-30 02:22:00,57.7,49.5,29.18,SW,227,0.0,0.0,74,0.00,,SKC,0.00,VWS V14.00,2013-10-30 06:22:00,
2013-10-30 02:27:00,57.7,49.5,29.18,SW,227,0.0,0.0,74,0.00,,SKC,0.00,VWS V14.00,2013-10-30 06:27:00,
2013-10-30 02:32:00,57.6,49.7,29.18,SW,228,0.0,0.0,75,0.00,,SKC,0.00,VWS V14.00,2013-10-30 06:32:00,
2013-10-30 02:37:00,57.6,49.7,29.18,SW,228,0.0,0.0,75,0.00,,SKC,0.00,VWS V14.00,2013-10-30 06:37:00,
2013-10-30 02:42:00,57.6,50.1,29.18,SW,228,0.0,0.0,76,0.00,,SKC,0.00,VWS V14.00,2013-10-30 06:42:00,
2013-10-30 02:47:00,57.4,49.9,29.18,SW,227,0.0,0.0,76,0.00,,SKC,0.00,VWS V14.00,2013-10-30 06:47:00,
2013-10-30 02:52:00,57.4,49.9,29.18,SW,228,0.0,0.0,76,0.00,,SKC,0.00,VWS V14.00,2013-10-30 06:52:00,
2013-10-30 02:57:00,57.4,50.2,29.18,SW,228,0.0,0.0,77,0.00,,SKC,0.00,VWS V14.00,2013-10-30 06:57:00,
2013-10-30 03:02:00,57.4,50.2,29.18,SW,228,0.0,0.0,77,0.00,,SKC,0.00,VWS V14.00,2013-10-30 07:02:00,
2013-10-30 03:07:00,57.2,50.1,29.18,SW,228,0.0,0.0,77,0.00,,SKC,0.00,VWS V14.00,2013-10-30 07:07:00,
2013-10-30 03:12:00,57.2,50.4,29.18,SW,228,0.0,0.0,78,0.00,,SKC,0.00,VWS V14.00,2013-10-30 07:12:00,
2013-10-30 03:17:00,57.4,50.6,29.18,SW,228,0.0,0.0,78,0.00,,SKC,0.00,VWS V14.00,2013-10-30 07:17:00,
2013-10-30 03:22:00,57.4,50.9,29.18,SW,227,0.0,0.0,79,0.00,,SKC,0.00,VWS V14.00,2013-10-30 07:22:00,
2013-10-30 03:27:00,57.4,50.9,29.18,SW,228,0.0,0.0,79,0.00,,SKC,0.00,VWS V14.00,2013-10-30 07:27:00,
2013-10-30 03:32:00,57.6,51.5,29.18,SW,228,0.0,0.0,80,0.00,,SKC,0.00,VWS V14.00,2013-10-30 07:32:00,
2013-10-30 03:37:00,57.6,51.5,29.18,SW,228,0.0,0.0,80,0.00,,SKC,0.00,VWS V14.00,2013-10-30 07:37:00,
2013-10-30 03:42:00,57.6,51.5,29.18,SW,228,0.0,0.0,80,0.00,,SKC,0.00,VWS V14.00,2013-10-30 07:42:00,
2013-10-30 03:47:00,57.7,52.0,29.18,SW,227,0.0,0.0,81,0.00,,SKC,0.00,VWS V14.00,2013-10-30 07:47:00,
2013-10-30 03:52:00,57.7,52.0,29.18,SW,228,0.0,0.0,81,0.00,,SKC,0.00,VWS V14.00,2013-10-30 07:52:00,
2013-10-30 03:57:00,57.7,52.0,29.18,SW,227,0.0,0.0,81,0.00,,SKC,0.00,VWS V14.00,2013-10-30 07:57:00,
2013-10-30 04:02:00,57.7,52.0,29.18,SW,228,0.0,0.0,81,0.00,,SKC,0.00,VWS V14.00,2013-10-30 08:02:00,
2013-10-30 04:07:00,57.9,52.1,29.18,SW,228,0.0,0.0,81,0.00,,SKC,0.00,VWS V14.00,2013-10-30 08:07:00,
2013-10-30 04:12:00,57.9,52.1,29.18,SW,228,0.0,0.0,81,0.00,,SKC,0.00,VWS V14.00,2013-10-30 08:12:00,
2013-10-30 04:17:00,57.9,52.1,29.18,SW,227,0.0,0.0,81,0.00,,SKC,0.00,VWS V14.00,2013-10-30 08:17:00,
2013-10-30 04:22:00,57.9,52.1,29.18,SW,228,0.0,0.0,81,0.00,,SKC,0.00,VWS V14.00,2013-10-30 08:22:00,
2013-10-30 04:27:00,57.9,51.8,29.18,SW,228,0.0,0.0,80,0.00,,SKC,0.00,VWS V14.00,2013-10-30 08:27:00,
2013-10-30 04:32:00,57.9,51.8,29.18,SW,228,0.0,0.0,80,0.00,,SKC,0.00,VWS V14.00,2013-10-30 08:32:00,
2013-10-30 04:37:00,58.1,52.0,29.18,SW,228,0.0,0.0,80,0.00,,SKC,0.00,VWS V14.00,2013-10-30 08:37:00,
2013-10-30 04:42:00,58.1,52.0,29.18,SW,228,0.0,0.0,80,0.00,,SKC,0.00,VWS V14.00,2013-10-30 08:42:00,
2013-10-30 04:47:00,58.3,52.2,29.18,SW,227,0.0,0.0,80,0.00,,SKC,0.00,VWS V14.00,2013-10-30 08:47:00,
2013-10-30 04:52:00,58.3,52.2,29.18,SW,228,0.0,0.0,80,0.00,,SKC,0.00,VWS V14.00,2013-10-30 08:52:00,
2013-10-30 04:57:00,58.5,52.3,29.18,SSE,154,0.0,3.1,80,0.00,,SKC,0.00,VWS V14.00,2013-10-30 08:57:00,
2013-10-30 05:02:00,58.6,52.5,29.18,SSE,167,0.0,0.0,80,0.00,,SKC,0.00,VWS V14.00,2013-10-30 09:02:00,
2013-10-30 05:07:00,58.8,52.7,29.18,SSE,167,0.0,0.0,80,0.00,,SKC,0.00,VWS V14.00,2013-10-30 09:07:00,
2013-10-30 05:12:00,58.8,52.7,29.18,SSE,166,0.0,0.0,80,0.00,,SKC,0.00,VWS V14.00,2013-10-30 09:12:00,
2013-10-30 05:18:00,59.0,52.8,29.18,South,184,0.0,3.1,80,0.00,,SKC,0.00,VWS V14.00,2013-10-30 09:18:00,
2013-10-30 05:23:00,59.2,53.0,29.18,SW,229,0.0,2.7,80,0.00,,SKC,0.00,VWS V14.00,2013-10-30 09:23:00,
2013-10-30 05:28:00,59.4,53.2,29.18,SSE,155,0.0,2.7,80,0.00,,SKC,0.00,VWS V14.00,2013-10-30 09:28:00,
2013-10-30 05:33:00,59.4,52.9,29.18,SSE,168,0.0,3.1,79,0.00,,SKC,0.00,VWS V14.00,2013-10-30 09:33:00,
2013-10-30 05:38:00,59.5,53.0,29.18,SE,130,0.0,3.1,79,0.00,,SKC,0.00,VWS V14.00,2013-10-30 09:38:00,
2013-10-30 05:43:00,59.5,53.0,29.18,South,187,0.0,0.0,79,0.00,,SKC,0.00,VWS V14.00,2013-10-30 09:43:00,
2013-10-30 05:48:00,59.7,53.2,29.18,ESE,110,0.0,4.0,79,0.00,,SKC,0.00,VWS V14.00,2013-10-30 09:48:00,
2013-10-30 05:53:00,59.7,53.2,29.18,ESE,111,0.0,0.0,79,0.00,,SKC,0.00,VWS V14.00,2013-10-30 09:53:00,
2013-10-30 05:58:00,59.9,53.0,29.18,South,185,0.0,3.1,78,0.00,,SKC,0.00,VWS V14.00,2013-10-30 09:58:00,
2013-10-30 06:03:00,59.9,53.0,29.18,SE,144,0.0,0.0,78,0.00,,SKC,0.00,VWS V14.00,2013-10-30 10:03:00,
2013-10-30 06:08:00,59.9,53.0,29.18,SSE,152,0.0,4.0,78,0.00,,SKC,0.00,VWS V14.00,2013-10-30 10:08:00,
2013-10-30 06:13:00,60.1,53.2,29.18,SE,131,0.0,0.0,78,0.00,,SKC,0.00,VWS V14.00,2013-10-30 10:13:00,
2013-10-30 06:18:00,60.1,52.9,29.21,SE,138,0.0,0.0,77,0.00,,SKC,0.00,VWS V14.00,2013-10-30 10:18:00,
2013-10-30 06:23:00,60.1,52.9,29.21,SSW,204,0.0,0.0,77,0.00,,SKC,0.00,VWS V14.00,2013-10-30 10:23:00,
2013-10-30 06:28:00,60.1,52.9,29.21,SSW,210,0.0,0.0,77,0.00,,SKC,0.00,VWS V14.00,2013-10-30 10:28:00,
2013-10-30 06:33:00,60.1,52.9,29.21,SE,139,0.0,0.0,77,0.00,,SKC,0.00,VWS V14.00,2013-10-30 10:33:00,
2013-10-30 06:38:00,60.1,52.9,29.21,SSE,150,0.0,2.7,77,0.00,,SKC,0.00,VWS V14.00,2013-10-30 10:38:00,
2013-10-30 06:43:00,60.1,52.5,29.21,SSE,151,0.0,0.0,76,0.00,,SKC,0.00,VWS V14.00,2013-10-30 10:43:00,
2013-10-30 06:48:00,60.3,52.7,29.21,SSE,151,0.0,0.0,76,0.00,,SKC,0.00,VWS V14.00,2013-10-30 10:48:00,
2013-10-30 06:53:00,60.3,52.7,29.21,SSE,151,0.0,0.0,76,0.00,,SKC,0.00,VWS V14.00,2013-10-30 10:53:00,
2013-10-30 06:58:00,60.3,52.7,29.21,SSE,151,0.0,0.0,76,0.00,,SKC,0.00,VWS V14.00,2013-10-30 10:58:00,
2013-10-30 07:03:00,60.3,52.7,29.21,SSW,202,0.0,0.0,76,0.00,,SKC,0.00,VWS V14.00,2013-10-30 11:03:00,
2013-10-30 07:08:00,60.3,52.7,29.21,SSW,202,0.0,0.0,76,0.00,,SKC,0.00,VWS V14.00,2013-10-30 11:08:00,
2013-10-30 07:13:00,60.3,52.7,29.21,SE,144,0.0,0.0,76,0.00,,SKC,0.00,VWS V14.00,2013-10-30 11:13:00,
2013-10-30 07:18:00,60.3,52.7,29.21,SE,144,0.0,0.0,76,0.00,,SKC,0.00,VWS V14.00,2013-10-30 11:18:00,
2013-10-30 07:23:00,60.3,52.7,29.21,SSE,158,3.8,3.8,76,0.00,,SKC,0.00,VWS V14.00,2013-10-30 11:23:00,
2013-10-30 07:28:00,60.3,52.7,29.21,South,178,3.8,3.8,76,0.00,,SKC,0.00,VWS V14.00,2013-10-30 11:28:00,
2013-10-30 07:33:00,60.4,52.8,29.21,SE,143,0.0,0.0,76,0.00,,SKC,0.00,VWS V14.00,2013-10-30 11:33:00,
2013-10-30 07:38:00,60.4,52.8,29.21,ESE,122,0.0,2.7,76,0.00,,SKC,0.00,VWS V14.00,2013-10-30 11:38:00,
2013-10-30 07:43:00,60.4,52.8,29.21,South,180,0.0,0.0,76,0.00,,SKC,0.00,VWS V14.00,2013-10-30 11:43:00,
2013-10-30 07:48:00,60.4,52.8,29.21,SSE,159,0.0,0.0,76,0.00,,SKC,0.00,VWS V14.00,2013-10-30 11:48:00,
2013-10-30 07:53:00,60.3,52.7,29.21,SSE,155,0.0,2.7,76,0.00,,SKC,0.00,VWS V14.00,2013-10-30 11:53:00,
2013-10-30 07:58:00,60.3,52.7,29.21,SSE,155,0.0,2.7,76,0.00,,SKC,0.00,VWS V14.00,2013-10-30 11:58:00,
2013-10-30 08:03:00,60.3,52.7,29.21,SSE,158,0.0,3.1,76,0.00,,SKC,0.00,VWS V14.00,2013-10-30 12:03:00,
2013-10-30 08:08:00,60.3,52.3,29.21,SSW,198,0.0,3.1,75,0.00,,SKC,0.00,VWS V14.00,2013-10-30 12:08:00,
2013-10-30 08:13:00,60.4,52.5,29.21,SSW,195,0.0,4.0,75,0.00,,SKC,0.00,VWS V14.00,2013-10-30 12:13:00,
2013-10-30 08:18:00,60.4,52.5,29.21,ESE,119,0.0,4.9,75,0.00,,SKC,0.00,VWS V14.00,2013-10-30 12:18:00,
2013-10-30 08:23:00,60.4,52.5,29.21,SSW,199,3.8,3.8,75,0.00,,SKC,0.00,VWS V14.00,2013-10-30 12:23:00,
2013-10-30 08:28:00,60.4,52.5,29.21,SSW,206,4.3,4.3,75,0.00,,SKC,0.00,VWS V14.00,2013-10-30 12:28:00,
2013-10-30 08:33:00,60.6,52.7,29.21,SSW,204,0.0,0.0,75,0.00,,SKC,0.00,VWS V14.00,2013-10-30 12:33:00,
2013-10-30 08:38:00,60.8,52.5,29.21,SE,137,3.8,3.8,74,0.00,,SKC,0.00,VWS V14.00,2013-10-30 12:38:00,
2013-10-30 08:43:00,61.0,52.7,29.21,South,184,0.0,0.0,74,0.00,,SKC,0.00,VWS V14.00,2013-10-30 12:43:00,
2013-10-30 08:48:00,61.2,52.5,29.21,SW,234,0.0,0.0,73,0.00,,SKC,0.00,VWS V14.00,2013-10-30 12:48:00,
2013-10-30 08:53:00,61.3,52.6,29.21,WSW,250,0.0,0.0,73,0.00,,SKC,0.00,VWS V14.00,2013-10-30 12:53:00,
2013-10-30 08:58:00,61.5,52.8,29.21,SSW,210,0.0,0.0,73,0.00,,SKC,0.00,VWS V14.00,2013-10-30 12:58:00,
2013-10-30 09:03:00,61.7,52.6,29.21,South,180,0.0,0.0,72,0.00,,SKC,0.00,VWS V14.00,2013-10-30 13:03:00,
2013-10-30 09:08:00,61.7,52.6,29.21,SSE,159,0.0,0.0,72,0.00,,SKC,0.00,VWS V14.00,2013-10-30 13:08:00,
2013-10-30 09:13:00,61.7,52.6,29.21,South,177,0.0,3.6,72,0.00,,SKC,0.00,VWS V14.00,2013-10-30 13:13:00,
2013-10-30 09:18:00,61.9,52.8,29.21,South,177,0.0,3.6,72,0.00,,SKC,0.00,VWS V14.00,2013-10-30 13:18:00,
2013-10-30 09:23:00,61.9,52.8,29.21,South,177,0.0,0.0,72,0.00,,SKC,0.00,VWS V14.00,2013-10-30 13:23:00,
2013-10-30 09:28:00,61.9,52.8,29.21,South,177,0.0,0.0,72,0.00,,SKC,0.00,VWS V14.00,2013-10-30 13:28:00,
2013-10-30 09:33:00,62.1,52.9,29.21,South,177,0.0,0.0,72,0.00,,SKC,0.00,VWS V14.00,2013-10-30 13:33:00,
2013-10-30 09:38:00,62.2,52.7,29.21,SSE,168,0.0,0.0,71,0.00,,SKC,0.00,VWS V14.00,2013-10-30 13:38:00,
2013-10-30 09:43:00,62.6,52.7,29.21,South,182,0.0,4.0,70,0.00,,SKC,0.00,VWS V14.00,2013-10-30 13:43:00,
2013-10-30 09:48:00,63.0,52.6,29.23,SSW,211,0.0,4.0,69,0.00,,SKC,0.00,VWS V14.00,2013-10-30 13:48:00,
2013-10-30 09:53:00,63.3,53.0,29.23,SW,223,0.0,0.0,69,0.00,,SKC,0.00,VWS V14.00,2013-10-30 13:53:00,
2013-10-30 09:58:00,63.5,53.2,29.23,SSW,195,3.8,3.8,69,0.00,,SKC,0.00,VWS V14.00,2013-10-30 13:58:00,
2013-10-30 10:03:00,64.0,53.3,29.23,SE,141,4.3,4.3,68,0.00,,SKC,0.00,VWS V14.00,2013-10-30 14:03:00,
2013-10-30 10:08:00,64.4,53.2,29.23,SSW,199,0.0,5.4,67,0.00,,SKC,0.00,VWS V14.00,2013-10-30 14:08:00,
2013-10-30 10:13:00,64.8,53.6,29.23,SE,141,0.0,3.1,67,0.00,,SKC,0.00,VWS V14.00,2013-10-30 14:13:00,
2013-10-30 10:18:00,65.1,53.1,29.23,East,96,0.0,5.8,65,0.00,,SKC,0.00,VWS V14.00,2013-10-30 14:18:00,
2013-10-30 10:23:00,65.7,52.7,29.23,West,268,0.0,3.6,63,0.00,,SKC,0.00,VWS V14.00,2013-10-30 14:23:00,
2013-10-30 10:28:00,66.0,52.6,29.23,SSE,154,0.0,5.4,62,0.00,,SKC,0.00,VWS V14.00,2013-10-30 14:28:00,
2013-10-30 10:33:00,66.2,52.8,29.23,SSW,200,0.0,0.0,62,0.00,,SKC,0.00,VWS V14.00,2013-10-30 14:33:00,
2013-10-30 10:38:00,66.4,52.5,29.23,SW,228,0.0,4.0,61,0.00,,SKC,0.00,VWS V14.00,2013-10-30 14:38:00,
2013-10-30 10:43:00,66.6,52.7,29.23,West,259,0.0,2.7,61,0.00,,SKC,0.00,VWS V14.00,2013-10-30 14:43:00,
2013-10-30 10:48:00,67.1,51.8,29.23,SW,234,4.3,5.8,58,0.00,,SKC,0.00,VWS V14.00,2013-10-30 14:48:00,
2013-10-30 10:53:00,67.5,51.7,29.23,South,186,0.0,5.8,57,0.00,,SKC,0.00,VWS V14.00,2013-10-30 14:53:00,
2013-10-30 10:58:00,68.0,51.7,29.23,SSE,167,4.8,6.3,56,0.00,,SKC,0.00,VWS V14.00,2013-10-30 14:58:00,
2013-10-30 11:03:00,68.2,51.9,29.23,SSW,193,3.8,3.8,56,0.00,,SKC,0.00,VWS V14.00,2013-10-30 15:03:00,
2013-10-30 11:08:00,68.7,51.9,29.23,SSW,197,3.2,5.8,55,0.00,,SKC,0.00,VWS V14.00,2013-10-30 15:08:00,
2013-10-30 11:13:00,69.1,52.2,29.23,SW,216,0.0,2.7,55,0.00,,SKC,0.00,VWS V14.00,2013-10-30 15:13:00,
2013-10-30 11:19:00,69.1,51.8,29.23,WSW,245,0.0,4.5,54,0.00,,SKC,0.00,VWS V14.00,2013-10-30 15:19:00,
2013-10-30 11:24:00,69.1,51.2,29.23,West,261,0.0,3.1,53,0.00,,SKC,0.00,VWS V14.00,2013-10-30 15:24:00,
2013-10-30 11:29:00,69.4,51.6,29.23,West,274,3.2,3.6,53,0.00,,SKC,0.00,VWS V14.00,2013-10-30 15:29:00,
2013-10-30 11:34:00,70.0,51.0,29.23,WNW,295,0.0,3.1,51,0.00,,SKC,0.00,VWS V14.00,2013-10-30 15:34:00,
2013-10-30 11:39:00,70.2,51.2,29.23,NW,326,0.0,3.1,51,0.00,,SKC,0.00,VWS V14.00,2013-10-30 15:39:00,
2013-10-30 11:44:00,70.2,50.7,29.23,SSE,160,0.0,3.1,50,0.00,,SKC,0.00,VWS V14.00,2013-10-30 15:44:00,
2013-10-30 11:49:00,70.3,50.8,29.23,SW,234,0.0,3.1,50,0.00,,SKC,0.00,VWS V14.00,2013-10-30 15:49:00,
2013-10-30 11:54:00,70.7,51.2,29.23,NE,54,0.0,4.0,50,0.00,,SKC,0.00,VWS V14.00,2013-10-30 15:54:00,
2013-10-30 11:59:00,71.1,51.0,29.23,SW,215,3.8,4.9,49,0.00,,SKC,0.00,VWS V14.00,2013-10-30 15:59:00,
2013-10-30 12:04:00,71.4,51.3,29.21,WSW,241,0.0,0.0,49,0.00,,SKC,0.00,VWS V14.00,2013-10-30 16:04:00,
2013-10-30 12:09:00,71.6,50.3,29.21,ESE,108,3.8,5.4,47,0.00,,SKC,0.00,VWS V14.00,2013-10-30 16:09:00,
2013-10-30 12:14:00,71.2,50.6,29.21,SSE,167,0.0,4.9,48,0.00,,SKC,0.00,VWS V14.00,2013-10-30 16:14:00,
2013-10-30 12:19:00,71.2,51.1,29.21,WNW,298,0.0,4.9,49,0.00,,SKC,0.00,VWS V14.00,2013-10-30 16:19:00,
2013-10-30 12:24:00,71.4,51.3,29.21,WSW,237,0.0,0.0,49,0.00,,SKC,0.00,VWS V14.00,2013-10-30 16:24:00,
2013-10-30 12:29:00,71.8,50.5,29.21,South,187,2.7,4.5,47,0.00,,SKC,0.00,VWS V14.00,2013-10-30 16:29:00,
2013-10-30 12:34:00,71.8,50.5,29.21,NW,310,0.0,4.0,47,0.00,,SKC,0.00,VWS V14.00,2013-10-30 16:34:00,
2013-10-30 12:39:00,71.6,50.3,29.21,SE,129,0.0,4.0,47,0.00,,SKC,0.00,VWS V14.00,2013-10-30 16:39:00,
2013-10-30 12:44:00,71.6,50.9,29.21,SW,215,5.9,5.9,48,0.00,,SKC,0.00,VWS V14.00,2013-10-30 16:44:00,
2013-10-30 12:49:00,72.3,50.4,29.21,South,173,9.7,9.7,46,0.00,,SKC,0.00,VWS V14.00,2013-10-30 16:49:00,
2013-10-30 12:54:00,73.2,51.2,29.21,SSW,208,2.7,4.9,46,0.00,,SKC,0.00,VWS V14.00,2013-10-30 16:54:00,
2013-10-30 12:59:00,73.9,51.3,29.21,ESE,104,2.7,4.9,45,0.00,,SKC,0.00,VWS V14.00,2013-10-30 16:59:00,
2013-10-30 13:04:00,74.7,51.3,29.21,SW,234,3.2,6.3,44,0.00,,SKC,0.00,VWS V14.00,2013-10-30 17:04:00,
2013-10-30 13:09:00,75.0,51.0,29.21,SW,220,4.8,8.1,43,0.00,,SKC,0.00,VWS V14.00,2013-10-30 17:09:00,
2013-10-30 13:14:00,75.4,51.3,29.21,WSW,247,3.2,3.2,43,0.00,,SKC,0.00,VWS V14.00,2013-10-30 17:14:00,
2013-10-30 13:19:00,75.6,50.2,29.18,South,174,8.1,8.1,41,0.00,,SKC,0.00,VWS V14.00,2013-10-30 17:19:00,
2013-10-30 13:24:00,75.7,51.0,29.18,WSW,239,0.0,5.4,42,0.00,,SKC,0.00,VWS V14.00,2013-10-30 17:24:00,
2013-10-30 13:29:00,75.6,50.2,29.18,WSW,244,0.0,5.4,41,0.00,,SKC,0.00,VWS V14.00,2013-10-30 17:29:00,
2013-10-30 13:34:00,75.2,49.9,29.18,SE,139,3.2,4.0,41,0.00,,SKC,0.00,VWS V14.00,2013-10-30 17:34:00,
2013-10-30 13:39:00,75.7,50.4,29.18,SSW,201,4.8,4.9,41,0.00,,SKC,0.00,VWS V14.00,2013-10-30 17:39:00,
2013-10-30 13:44:00,75.9,48.5,29.18,WSW,250,2.7,5.4,38,0.00,,SKC,0.00,VWS V14.00,2013-10-30 17:44:00,
2013-10-30 13:49:00,76.1,50.0,29.15,NE,49,2.7,5.4,40,0.00,,SKC,0.00,VWS V14.00,2013-10-30 17:49:00,
2013-10-30 13:54:00,76.6,50.5,29.15,SE,129,4.3,5.8,40,0.00,,SKC,0.00,VWS V14.00,2013-10-30 17:54:00,
2013-10-30 13:59:00,77.2,49.6,29.15,SW,214,9.1,9.1,38,0.00,,SKC,0.00,VWS V14.00,2013-10-30 17:59:00,
2013-10-30 14:04:00,77.5,50.0,29.15,ESE,106,2.7,5.4,38,0.00,,SKC,0.00,VWS V14.00,2013-10-30 18:04:00,
2013-10-30 14:09:00,77.7,49.4,29.15,North,4,3.8,5.4,37,0.00,,SKC,0.00,VWS V14.00,2013-10-30 18:09:00,
2013-10-30 14:14:00,77.7,47.9,29.15,NW,308,0.0,4.5,35,0.00,,SKC,0.00,VWS V14.00,2013-10-30 18:14:00,
2013-10-30 14:19:00,77.9,48.8,29.15,SSW,192,0.0,4.5,36,0.00,,SKC,0.00,VWS V14.00,2013-10-30 18:19:00,
2013-10-30 14:24:00,78.3,48.4,29.15,SW,225,4.3,5.8,35,0.00,,SKC,0.00,VWS V14.00,2013-10-30 18:24:00,
2013-10-30 14:29:00,78.6,48.7,29.15,SW,216,6.4,7.2,35,0.00,,SKC,0.00,VWS V14.00,2013-10-30 18:29:00,
2013-10-30 14:34:00,79.2,48.4,29.12,SW,223,0.0,4.0,34,0.00,,SKC,0.00,VWS V14.00,2013-10-30 18:34:00,
2013-10-30 14:39:00,79.0,46.6,29.12,West,280,3.8,5.8,32,0.00,,SKC,0.00,VWS V14.00,2013-10-30 18:39:00,
2013-10-30 14:44:00,79.0,46.6,29.12,SW,223,4.3,7.6,32,0.00,,SKC,0.00,VWS V14.00,2013-10-30 18:44:00,
2013-10-30 14:49:00,79.0,46.6,29.12,WNW,282,2.7,7.6,32,0.00,,SKC,0.00,VWS V14.00,2013-10-30 18:49:00,
2013-10-30 14:54:00,79.0,48.2,29.12,SSW,206,6.4,6.4,34,0.00,,SKC,0.00,VWS V14.00,2013-10-30 18:54:00,
2013-10-30 14:59:00,79.2,48.4,29.12,South,182,6.4,6.4,34,0.00,,SKC,0.00,VWS V14.00,2013-10-30 18:59:00,
2013-10-30 15:04:00,79.5,48.7,29.12,WNW,288,0.0,4.0,34,0.00,,SKC,0.00,VWS V14.00,2013-10-30 19:04:00,
2013-10-30 15:09:00,79.5,47.9,29.12,SW,215,0.0,4.0,33,0.00,,SKC,0.00,VWS V14.00,2013-10-30 19:09:00,
2013-10-30 15:14:00,79.3,47.8,29.12,South,179,2.7,8.1,33,0.00,,SKC,0.00,VWS V14.00,2013-10-30 19:14:00,
2013-10-30 15:19:00,79.2,47.6,29.12,SE,143,0.0,8.1,33,0.00,,SKC,0.00,VWS V14.00,2013-10-30 19:19:00,
2013-10-30 15:24:00,79.0,48.2,29.12,SSW,204,0.0,8.3,34,0.00,,SKC,0.00,VWS V14.00,2013-10-30 19:24:00,
2013-10-30 15:29:00,79.0,48.2,29.12,South,189,7.5,8.3,34,0.00,,SKC,0.00,VWS V14.00,2013-10-30 19:29:00,
2013-10-30 15:34:00,78.8,48.1,29.12,SE,145,3.2,6.7,34,0.00,,SKC,0.00,VWS V14.00,2013-10-30 19:34:00,
2013-10-30 15:39:00,78.6,47.1,29.12,ESE,111,6.4,6.7,33,0.00,,SKC,0.00,VWS V14.00,2013-10-30 19:39:00,
2013-10-30 15:44:00,78.4,47.8,29.12,South,179,2.7,10.1,34,0.00,,SKC,0.00,VWS V14.00,2013-10-30 19:44:00,
2013-10-30 15:49:00,78.4,48.5,29.12,SW,231,0.0,10.1,35,0.00,,SKC,0.00,VWS V14.00,2013-10-30 19:49:00,
2013-10-30 15:54:00,78.4,47.8,29.12,East,87,0.0,4.0,34,0.00,,SKC,0.00,VWS V14.00,2013-10-30 19:54:00,
2013-10-30 15:59:00,78.3,47.6,29.12,WSW,244,3.2,4.0,34,0.00,,SKC,0.00,VWS V14.00,2013-10-30 19:59:00,
2013-10-30 16:04:00,77.9,47.3,29.12,WSW,253,0.0,4.0,34,0.00,,SKC,0.00,VWS V14.00,2013-10-30 20:04:00,
2013-10-30 16:09:00,77.7,47.1,29.12,WSW,244,0.0,7.6,34,0.00,,SKC,0.00,VWS V14.00,2013-10-30 20:09:00,
2013-10-30 16:14:00,77.5,47.0,29.12,SSW,193,0.0,5.4,34,0.00,,SKC,0.00,VWS V14.00,2013-10-30 20:14:00,
2013-10-30 16:19:00,77.5,47.0,29.12,ESE,119,2.7,5.4,34,0.00,,SKC,0.00,VWS V14.00,2013-10-30 20:19:00,
2013-10-30 16:24:00,77.5,47.8,29.12,SSW,210,0.0,5.4,35,0.00,,SKC,0.00,VWS V14.00,2013-10-30 20:24:00,
2013-10-30 16:29:00,77.4,46.8,29.12,West,280,3.2,5.4,34,0.00,,SKC,0.00,VWS V14.00,2013-10-30 20:29:00,
2013-10-30 16:34:00,77.2,45.9,29.09,NNW,328,0.0,4.0,33,0.00,,SKC,0.00,VWS V14.00,2013-10-30 20:34:00,
2013-10-30 16:39:00,76.8,46.3,29.09,West,267,2.7,4.0,34,0.00,,SKC,0.00,VWS V14.00,2013-10-30 20:39:00,
2013-10-30 16:44:00,76.6,47.0,29.09,SSE,163,0.0,0.0,35,0.00,,SKC,0.00,VWS V14.00,2013-10-30 20:44:00,
2013-10-30 16:49:00,76.1,47.2,29.09,North,10,0.0,4.0,36,0.00,,SKC,0.00,VWS V14.00,2013-10-30 20:49:00,
2013-10-30 16:55:00,75.9,47.1,29.09,North,10,0.0,0.0,36,0.00,,SKC,0.00,VWS V14.00,2013-10-30 20:55:00,
2013-10-30 17:00:00,75.7,46.9,29.09,North,10,0.0,0.0,36,0.00,,SKC,0.00,VWS V14.00,2013-10-30 21:00:00,
2013-10-30 17:05:00,75.6,47.5,29.09,West,277,0.0,0.0,37,0.00,,SKC,0.00,VWS V14.00,2013-10-30 21:05:00,
2013-10-30 17:10:00,75.4,48.0,29.09,West,277,0.0,0.0,38,0.00,,SKC,0.00,VWS V14.00,2013-10-30 21:10:00,
2013-10-30 17:15:00,75.2,47.9,29.09,SSW,212,0.0,3.6,38,0.00,,SKC,0.00,VWS V14.00,2013-10-30 21:15:00,
2013-10-30 17:20:00,74.8,48.2,29.09,SSW,198,0.0,3.6,39,0.00,,SKC,0.00,VWS V14.00,2013-10-30 21:20:00,
2013-10-30 17:25:00,74.7,46.7,29.09,North,353,0.0,0.0,37,0.00,,SKC,0.00,VWS V14.00,2013-10-30 21:25:00,
2013-10-30 17:30:00,74.5,47.9,29.09,SSW,192,0.0,2.7,39,0.00,,SKC,0.00,VWS V14.00,2013-10-30 21:30:00,
2013-10-30 17:35:00,74.3,47.8,29.09,SSE,156,0.0,3.6,39,0.00,,SKC,0.00,VWS V14.00,2013-10-30 21:35:00,
2013-10-30 17:40:00,74.1,48.3,29.09,SSE,154,0.0,3.6,40,0.00,,SKC,0.00,VWS V14.00,2013-10-30 21:40:00,
2013-10-30 17:45:00,73.9,48.1,29.09,SE,126,0.0,0.0,40,0.00,,SKC,0.00,VWS V14.00,2013-10-30 21:45:00,
2013-10-30 17:50:00,73.8,48.0,29.09,SE,137,0.0,0.0,40,0.00,,SKC,0.00,VWS V14.00,2013-10-30 21:50:00,
2013-10-30 17:55:00,73.6,47.8,29.09,SE,137,0.0,0.0,40,0.00,,SKC,0.00,VWS V14.00,2013-10-30 21:55:00,
2013-10-30 18:00:00,73.2,48.1,29.09,SE,137,0.0,0.0,41,0.00,,SKC,0.00,VWS V14.00,2013-10-30 22:00:00,
2013-10-30 18:05:00,73.0,48.0,29.09,SE,137,0.0,0.0,41,0.00,,SKC,0.00,VWS V14.00,2013-10-30 22:05:00,
2013-10-30 18:10:00,72.7,48.3,29.09,SE,137,0.0,0.0,42,0.00,,SKC,0.00,VWS V14.00,2013-10-30 22:10:00,
2013-10-30 18:15:00,72.5,48.1,29.09,SE,137,0.0,0.0,42,0.00,,SKC,0.00,VWS V14.00,2013-10-30 22:15:00,
2013-10-30 18:20:00,72.1,47.8,29.09,SE,137,0.0,0.0,42,0.00,,SKC,0.00,VWS V14.00,2013-10-30 22:20:00,
2013-10-30 18:25:00,71.8,47.5,29.09,SE,137,0.0,0.0,42,0.00,,SKC,0.00,VWS V14.00,2013-10-30 22:25:00,
2013-10-30 18:30:00,71.2,47.6,29.09,SE,137,0.0,0.0,43,0.00,,SKC,0.00,VWS V14.00,2013-10-30 22:30:00,
2013-10-30 18:35:00,70.9,47.9,29.09,SE,137,0.0,0.0,44,0.00,,SKC,0.00,VWS V14.00,2013-10-30 22:35:00,
2013-10-30 18:40:00,70.3,48.0,29.09,SE,137,0.0,0.0,45,0.00,,SKC,0.00,VWS V14.00,2013-10-30 22:40:00,
2013-10-30 18:45:00,69.8,48.1,29.09,SE,137,0.0,0.0,46,0.00,,SKC,0.00,VWS V14.00,2013-10-30 22:45:00,
2013-10-30 18:50:00,69.4,48.3,29.09,SE,137,0.0,0.0,47,0.00,,SKC,0.00,VWS V14.00,2013-10-30 22:50:00,
2013-10-30 18:55:00,69.1,48.0,29.09,SE,137,0.0,0.0,47,0.00,,SKC,0.00,VWS V14.00,2013-10-30 22:55:00,
2013-10-30 19:00:00,68.9,47.9,29.09,SE,137,0.0,0.0,47,0.00,,SKC,0.00,VWS V14.00,2013-10-30 23:00:00,
2013-10-30 19:05:00,68.7,48.3,29.12,SE,137,0.0,0.0,48,0.00,,SKC,0.00,VWS V14.00,2013-10-30 23:05:00,
2013-10-30 19:10:00,68.4,47.9,29.12,SE,137,0.0,0.0,48,0.00,,SKC,0.00,VWS V14.00,2013-10-30 23:10:00,
2013-10-30 19:15:00,68.0,48.2,29.12,SE,137,0.0,0.0,49,0.00,,SKC,0.00,VWS V14.00,2013-10-30 23:15:00,
2013-10-30 19:20:00,67.8,48.5,29.09,SE,137,0.0,0.0,50,0.00,,SKC,0.00,VWS V14.00,2013-10-30 23:20:00,
2013-10-30 19:25:00,67.6,48.4,29.09,SE,137,0.0,0.0,50,0.00,,SKC,0.00,VWS V14.00,2013-10-30 23:25:00,
2013-10-30 19:30:00,67.5,48.2,29.09,SE,137,0.0,0.0,50,0.00,,SKC,0.00,VWS V14.00,2013-10-30 23:30:00,
2013-10-30 19:35:00,67.3,48.0,29.09,SE,137,0.0,0.0,50,0.00,,SKC,0.00,VWS V14.00,2013-10-30 23:35:00,
2013-10-30 19:40:00,66.9,48.2,29.09,SE,137,0.0,0.0,51,0.00,,SKC,0.00,VWS V14.00,2013-10-30 23:40:00,
2013-10-30 19:45:00,66.6,47.9,29.09,SE,137,0.0,0.0,51,0.00,,SKC,0.00,VWS V14.00,2013-10-30 23:45:00,
2013-10-30 19:50:00,66.4,48.2,29.09,SE,137,0.0,0.0,52,0.00,,SKC,0.00,VWS V14.00,2013-10-30 23:50:00,
2013-10-30 19:55:00,66.2,48.6,29.09,SE,137,0.0,0.0,53,0.00,,SKC,0.00,VWS V14.00,2013-10-30 23:55:00,
2013-10-30 20:00:00,65.8,48.2,29.09,SE,137,0.0,0.0,53,0.00,,SKC,0.00,VWS V14.00,2013-10-31 00:00:00,
2013-10-30 20:05:00,65.5,48.4,29.12,SE,137,0.0,0.0,54,0.00,,SKC,0.00,VWS V14.00,2013-10-31 00:05:00,
2013-10-30 20:10:00,65.3,48.7,29.12,SE,137,0.0,0.0,55,0.00,,SKC,0.00,VWS V14.00,2013-10-31 00:10:00,
2013-10-30 20:15:00,64.9,48.9,29.12,SE,137,0.0,0.0,56,0.00,,SKC,0.00,VWS V14.00,2013-10-31 00:15:00,
2013-10-30 20:20:00,64.8,48.7,29.12,SE,137,0.0,0.0,56,0.00,,SKC,0.00,VWS V14.00,2013-10-31 00:20:00,
2013-10-30 20:25:00,64.6,49.0,29.12,SE,137,0.0,0.0,57,0.00,,SKC,0.00,VWS V14.00,2013-10-31 00:25:00,
2013-10-30 20:30:00,64.4,48.8,29.12,SE,137,0.0,0.0,57,0.00,,SKC,0.00,VWS V14.00,2013-10-31 00:30:00,
2013-10-30 20:35:00,64.2,49.6,29.12,SE,137,0.0,0.0,59,0.00,,SKC,0.00,VWS V14.00,2013-10-31 00:35:00,
2013-10-30 20:40:00,63.9,49.7,29.12,SE,137,0.0,0.0,60,0.00,,SKC,0.00,VWS V14.00,2013-10-31 00:40:00,
2013-10-30 20:45:00,63.7,49.5,29.12,SE,137,0.0,0.0,60,0.00,,SKC,0.00,VWS V14.00,2013-10-31 00:45:00,
2013-10-30 20:50:00,63.5,49.4,29.12,SE,137,0.0,0.0,60,0.00,,SKC,0.00,VWS V14.00,2013-10-31 00:50:00,
2013-10-30 20:55:00,63.3,49.7,29.12,SE,137,0.0,0.0,61,0.00,,SKC,0.00,VWS V14.00,2013-10-31 00:55:00,
2013-10-30 21:00:00,63.3,49.7,29.12,SE,137,0.0,0.0,61,0.00,,SKC,0.00,VWS V14.00,2013-10-31 01:00:00,
2013-10-30 21:05:00,63.3,49.7,29.12,SE,137,0.0,0.0,61,0.00,,SKC,0.00,VWS V14.00,2013-10-31 01:05:00,
2013-10-30 21:10:00,63.5,49.4,29.12,SE,137,0.0,0.0,60,0.00,,SKC,0.00,VWS V14.00,2013-10-31 01:10:00,
2013-10-30 21:15:00,63.5,49.4,29.12,SE,137,0.0,0.0,60,0.00,,SKC,0.00,VWS V14.00,2013-10-31 01:15:00,
2013-10-30 21:20:00,63.3,49.2,29.12,SE,137,0.0,0.0,60,0.00,,SKC,0.00,VWS V14.00,2013-10-31 01:20:00,
2013-10-30 21:25:00,63.3,49.2,29.12,SE,137,0.0,0.0,60,0.00,,SKC,0.00,VWS V14.00,2013-10-31 01:25:00,
2013-10-30 21:30:00,63.1,49.5,29.12,SE,137,0.0,0.0,61,0.00,,SKC,0.00,VWS V14.00,2013-10-31 01:30:00,
2013-10-30 21:35:00,62.8,49.6,29.09,SE,137,0.0,0.0,62,0.00,,SKC,0.00,VWS V14.00,2013-10-31 01:35:00,
2013-10-30 21:40:00,62.6,49.4,29.09,SE,137,0.0,0.0,62,0.00,,SKC,0.00,VWS V14.00,2013-10-31 01:40:00,
2013-10-30 21:45:00,62.6,49.4,29.09,SE,137,0.0,0.0,62,0.00,,SKC,0.00,VWS V14.00,2013-10-31 01:45:00,
2013-10-30 21:50:00,62.6,49.4,29.09,SE,137,0.0,0.0,62,0.00,,SKC,0.00,VWS V14.00,2013-10-31 01:50:00,
2013-10-30 21:55:00,62.6,49.4,29.09,SE,137,0.0,0.0,62,0.00,,SKC,0.00,VWS V14.00,2013-10-31 01:55:00,
2013-10-30 22:00:00,62.6,49.4,29.09,SE,137,0.0,0.0,62,0.00,,SKC,0.00,VWS V14.00,2013-10-31 02:00:00,
2013-10-30 22:05:00,62.6,49.4,29.09,SE,137,0.0,0.0,62,0.00,,SKC,0.00,VWS V14.00,2013-10-31 02:05:00,
2013-10-30 22:10:00,62.4,49.2,29.09,SE,137,0.0,0.0,62,0.00,,SKC,0.00,VWS V14.00,2013-10-31 02:10:00,
2013-10-30 22:16:00,62.2,49.5,29.09,SE,137,0.0,0.0,63,0.00,,SKC,0.00,VWS V14.00,2013-10-31 02:16:00,
2013-10-30 22:21:00,62.1,49.8,29.09,SE,137,0.0,0.0,64,0.00,,SKC,0.00,VWS V14.00,2013-10-31 02:21:00,
2013-10-30 22:26:00,61.9,50.0,29.09,SE,137,0.0,0.0,65,0.00,,SKC,0.00,VWS V14.00,2013-10-31 02:26:00,
2013-10-30 22:31:00,61.7,49.8,29.09,SE,137,0.0,0.0,65,0.00,,SKC,0.00,VWS V14.00,2013-10-31 02:31:00,
2013-10-30 22:36:00,61.5,49.7,29.12,SE,137,0.0,0.0,65,0.00,,SKC,0.00,VWS V14.00,2013-10-31 02:36:00,
2013-10-30 22:41:00,61.5,49.7,29.12,SE,137,0.0,0.0,65,0.00,,SKC,0.00,VWS V14.00,2013-10-31 02:41:00,
2013-10-30 22:46:00,61.5,49.7,29.12,SE,137,0.0,0.0,65,0.00,,SKC,0.00,VWS V14.00,2013-10-31 02:46:00,
2013-10-30 22:51:00,61.7,49.4,29.12,SE,137,0.0,0.0,64,0.00,,SKC,0.00,VWS V14.00,2013-10-31 02:51:00,
2013-10-30 22:56:00,61.7,49.4,29.12,SE,137,0.0,0.0,64,0.00,,SKC,0.00,VWS V14.00,2013-10-31 02:56:00,
2013-10-30 23:00:00,61.7,49.4,29.12,SE,137,0.0,0.0,64,0.00,,SKC,0.00,VWS V14.00,2013-10-31 03:00:00,
2013-10-30 23:06:00,61.5,49.2,29.12,SE,137,0.0,0.0,64,0.00,,SKC,0.00,VWS V14.00,2013-10-31 03:06:00,
2013-10-30 23:11:00,61.3,49.1,29.12,SE,137,0.0,0.0,64,0.00,,SKC,0.00,VWS V14.00,2013-10-31 03:11:00,
2013-10-30 23:16:00,61.2,49.3,29.12,SE,137,0.0,0.0,65,0.00,,SKC,0.00,VWS V14.00,2013-10-31 03:16:00,
2013-10-30 23:21:00,61.0,49.2,29.12,SE,137,0.0,0.0,65,0.00,,SKC,0.00,VWS V14.00,2013-10-31 03:21:00,
2013-10-30 23:26:00,60.8,49.4,29.12,SE,137,0.0,0.0,66,0.00,,SKC,0.00,VWS V14.00,2013-10-31 03:26:00,
2013-10-30 23:31:00,60.8,49.4,29.12,SE,137,0.0,0.0,66,0.00,,SKC,0.00,VWS V14.00,2013-10-31 03:31:00,
2013-10-30 23:36:00,60.6,49.2,29.09,SE,137,0.0,0.0,66,0.00,,SKC,0.00,VWS V14.00,2013-10-31 03:36:00,
2013-10-30 23:41:00,60.6,49.2,29.09,SE,137,0.0,0.0,66,0.00,,SKC,0.00,VWS V14.00,2013-10-31 03:41:00,
2013-10-30 23:46:00,60.6,49.2,29.09,SE,137,0.0,0.0,66,0.00,,SKC,0.00,VWS V14.00,2013-10-31 03:46:00,
2013-10-30 23:51:00,60.6,49.2,29.09,SE,137,0.0,0.0,66,0.00,,SKC,0.00,VWS V14.00,2013-10-31 03:51:00,
2013-10-30 23:56:00,60.6,49.2,29.09,SE,137,0.0,0.0,66,0.00,,SKC,0.00,VWS V14.00,2013-10-31 03:56:00,